Time;durP1;ratioP1;P1;durP2;ratioP2;P2;SDS_P1;SDS_P2;PMS_P1;PMS_P2;Temp;Humidity;BMP_temperature;BMP_pressure;BME280_temperature;BME280_humidity;BME280_pressure;Samples;Min_cycle;Max_cycle;Signal;HPM_P1;HPM_P2
2024/01/11 00:00:44;;;;;;;33.37;21.57;;;3.10;50.30;;;;;;4983469;28;20520;-58
2024/01/11 00:03:09;;;;;;;36.90;21.70;;;3.10;50.30;;;;;;4980552;28;20559;-61
2024/01/11 00:05:36;;;;;;;38.70;22.30;;;3.10;50.40;;;;;;4977227;28;20238;-59
2024/01/11 00:08:01;;;;;;;36.33;21.90;;;3.10;50.30;;;;;;4980712;28;20198;-61
2024/01/11 00:10:27;;;;;;;35.17;21.63;;;3.00;50.20;;;;;;4981908;28;20430;-57
2024/01/11 00:12:52;;;;;;;34.57;22.43;;;3.00;50.20;;;;;;4981773;28;20199;-59
2024/01/11 00:15:18;;;;;;;38.17;21.97;;;3.00;50.10;;;;;;4982065;28;20190;-62
2024/01/11 00:17:43;;;;;;;38.87;20.73;;;3.00;50.20;;;;;;4990187;28;20270;-61
2024/01/11 00:20:10;;;;;;;35.13;20.97;;;2.90;50.30;;;;;;4989270;28;20194;-57
2024/01/11 00:22:36;;;;;;;40.67;22.10;;;2.90;50.60;;;;;;4987909;28;20199;-61
2024/01/11 00:25:02;;;;;;;38.20;21.33;;;2.90;50.80;;;;;;4998991;28;20422;-64
2024/01/11 00:27:27;;;;;;;36.13;21.70;;;2.90;50.80;;;;;;4989004;28;20194;-60
2024/01/11 00:29:53;;;;;;;33.53;21.10;;;2.90;50.80;;;;;;4981785;28;20729;-58
2024/01/11 00:32:20;;;;;;;31.53;20.03;;;2.80;50.80;;;;;;4992828;28;20192;-59
2024/01/11 00:34:46;;;;;;;34.90;20.80;;;2.80;51.00;;;;;;4982028;28;20522;-62
2024/01/11 00:37:12;;;;;;;33.03;20.80;;;2.80;51.00;;;;;;4983155;28;20478;-60
2024/01/11 00:39:38;;;;;;;38.27;21.77;;;2.80;50.80;;;;;;4990814;28;20880;-62
2024/01/11 00:42:03;;;;;;;34.77;20.13;;;2.70;50.80;;;;;;4988029;28;20221;-62
2024/01/11 00:44:29;;;;;;;36.40;21.80;;;2.70;50.80;;;;;;4988494;28;20183;-58
2024/01/11 00:46:55;;;;;;;34.83;20.70;;;2.70;50.90;;;;;;4982396;28;20592;-58
2024/01/11 00:49:21;;;;;;;36.07;20.63;;;2.80;50.80;;;;;;4979673;28;20401;-60
2024/01/11 00:51:47;;;;;;;33.00;20.97;;;2.80;50.70;;;;;;4981139;28;20456;-62
2024/01/11 00:54:12;;;;;;;34.90;19.40;;;2.80;50.60;;;;;;4978942;28;20186;-60
2024/01/11 00:56:38;;;;;;;33.67;18.00;;;2.70;50.30;;;;;;4989058;28;20473;-62
2024/01/11 00:59:04;;;;;;;35.40;20.03;;;2.70;50.20;;;;;;4991365;28;20290;-58
2024/01/11 01:01:30;;;;;;;32.40;19.30;;;2.70;50.30;;;;;;4986970;28;20194;-57
2024/01/11 01:03:55;;;;;;;36.77;20.43;;;2.70;50.50;;;;;;4991310;28;20201;-58
2024/01/11 01:06:21;;;;;;;37.47;20.77;;;2.70;50.70;;;;;;4987788;28;20203;-62
2024/01/11 01:08:46;;;;;;;37.50;21.50;;;2.70;51.00;;;;;;4988317;28;20201;-62
2024/01/11 01:11:12;;;;;;;40.67;21.73;;;2.70;51.10;;;;;;4988161;28;20190;-58
2024/01/11 01:13:37;;;;;;;34.37;20.10;;;2.60;51.00;;;;;;4985074;28;20505;-59
2024/01/11 01:16:03;;;;;;;35.90;19.07;;;2.60;50.90;;;;;;4988403;28;20507;-63
2024/01/11 01:18:29;;;;;;;32.00;19.97;;;2.60;50.90;;;;;;4985113;28;20250;-61
2024/01/11 01:20:55;;;;;;;38.40;18.97;;;2.60;50.90;;;;;;4989935;28;20241;-61
2024/01/11 01:23:21;;;;;;;35.27;21.83;;;2.60;50.80;;;;;;4988343;28;20188;-60
2024/01/11 01:25:46;;;;;;;32.97;19.13;;;2.50;50.60;;;;;;4988085;28;20532;-61
2024/01/11 01:28:12;;;;;;;34.90;19.50;;;2.50;50.50;;;;;;4992153;28;20187;-57
2024/01/11 01:30:37;;;;;;;37.57;22.57;;;2.50;50.40;;;;;;4990351;28;20191;-56
2024/01/11 01:33:03;;;;;;;39.13;21.07;;;2.50;50.40;;;;;;4995090;28;20199;-64
2024/01/11 01:35:29;;;;;;;37.83;22.23;;;2.40;50.40;;;;;;4981629;28;20215;-59
2024/01/11 01:37:55;;;;;;;37.93;20.33;;;2.40;50.60;;;;;;4992854;28;20569;-57
2024/01/11 01:40:20;;;;;;;36.43;20.70;;;2.40;50.70;;;;;;4987030;28;20725;-61
2024/01/11 01:42:46;;;;;;;37.10;21.90;;;2.40;50.90;;;;;;4989760;28;20437;-61
2024/01/11 01:45:12;;;;;;;35.60;19.23;;;2.40;51.30;;;;;;4986632;28;20214;-62
2024/01/11 01:47:40;;;;;;;38.30;21.23;;;2.40;51.40;;;;;;4980261;28;20424;-58
2024/01/11 01:50:07;;;;;;;36.47;20.53;;;2.30;51.20;;;;;;4989053;28;20540;-57
2024/01/11 01:52:34;;;;;;;32.67;20.60;;;2.30;51.30;;;;;;4982085;28;20888;-57
2024/01/11 01:55:02;;;;;;;35.90;21.03;;;2.40;51.60;;;;;;4987830;28;20517;-61
2024/01/11 01:57:30;;;;;;;33.00;19.10;;;2.40;51.60;;;;;;4985793;28;20891;-61
2024/01/11 01:59:56;;;;;;;35.70;21.73;;;2.40;51.40;;;;;;4985495;28;20447;-59
2024/01/11 02:02:22;;;;;;;32.40;19.83;;;2.40;51.30;;;;;;4983791;28;20434;-59
2024/01/11 02:04:48;;;;;;;37.20;19.60;;;2.40;51.20;;;;;;4982987;28;20450;-59
2024/01/11 02:07:14;;;;;;;37.43;21.07;;;2.40;51.40;;;;;;4992203;28;20472;-59
2024/01/11 02:09:40;;;;;;;35.20;18.97;;;2.50;51.40;;;;;;4986704;28;20429;-60
2024/01/11 02:12:10;;;;;;;32.67;18.83;;;2.40;51.20;;;;;;4990112;28;20459;-60
2024/01/11 02:14:37;;;;;;;34.80;21.27;;;2.40;51.30;;;;;;4981663;28;20445;-57
2024/01/11 02:17:03;;;;;;;37.37;20.57;;;2.40;51.30;;;;;;4983740;28;20474;-64
2024/01/11 02:19:29;;;;;;;30.83;19.73;;;2.30;51.00;;;;;;4985715;28;20642;-58
2024/01/11 02:21:55;;;;;;;34.67;19.93;;;2.30;51.20;;;;;;4978957;28;20219;-60
2024/01/11 02:24:21;;;;;;;34.10;20.47;;;2.30;51.30;;;;;;4986837;28;20185;-61
2024/01/11 02:27:03;;;;;;;37.20;21.50;;;2.30;51.70;;;;;;4985409;28;20461;-60
2024/01/11 02:29:30;;;;;;;37.47;20.90;;;2.30;51.00;;;;;;4986359;28;20186;-58
2024/01/11 02:31:56;;;;;;;35.97;21.77;;;2.30;51.20;;;;;;4988345;28;20487;-62
2024/01/11 02:34:27;;;;;;;34.33;21.33;;;2.20;51.30;;;;;;4978897;28;20448;-60
2024/01/11 02:36:54;;;;;;;33.97;18.87;;;2.20;51.50;;;;;;4980147;28;20556;-59
2024/01/11 02:39:22;;;;;;;43.13;23.43;;;2.20;51.50;;;;;;4978828;28;20489;-58
2024/01/11 02:41:50;;;;;;;42.00;24.63;;;2.20;51.30;;;;;;4977059;28;20976;-60
2024/01/11 02:44:15;;;;;;;33.50;20.20;;;2.20;51.20;;;;;;4982386;28;20426;-61
2024/01/11 02:46:41;;;;;;;35.83;19.90;;;2.20;51.00;;;;;;4987197;28;20441;-57
2024/01/11 02:49:06;;;;;;;30.20;18.63;;;2.10;50.90;;;;;;4983714;28;20563;-60
2024/01/11 02:51:32;;;;;;;40.50;21.67;;;2.10;50.90;;;;;;4976006;28;20205;-59
2024/01/11 02:53:58;;;;;;;36.77;20.60;;;2.10;51.10;;;;;;4979539;28;20191;-62
2024/01/11 02:56:23;;;;;;;39.17;21.87;;;2.10;51.10;;;;;;4976000;28;20213;-64
2024/01/11 02:58:49;;;;;;;36.23;20.97;;;2.10;51.00;;;;;;4983484;28;20349;-61
2024/01/11 03:01:15;;;;;;;28.90;17.90;;;2.10;51.00;;;;;;4978576;28;20190;-60
2024/01/11 03:03:40;;;;;;;37.60;20.77;;;2.10;51.30;;;;;;4984855;28;20175;-60
2024/01/11 03:06:06;;;;;;;28.60;19.83;;;2.00;51.40;;;;;;4983710;28;20213;-60
2024/01/11 03:08:31;;;;;;;35.90;21.30;;;2.00;51.50;;;;;;4987943;28;20183;-62
2024/01/11 03:10:57;;;;;;;38.03;19.87;;;2.10;51.40;;;;;;4994849;28;20249;-60
2024/01/11 03:13:23;;;;;;;37.00;20.37;;;2.10;51.20;;;;;;4994823;28;20319;-61
2024/01/11 03:15:48;;;;;;;37.50;20.37;;;2.10;51.10;;;;;;4988818;28;20236;-62
2024/01/11 03:18:14;;;;;;;33.03;18.17;;;2.00;51.00;;;;;;4989338;28;20477;-62
2024/01/11 03:20:40;;;;;;;37.50;21.57;;;1.90;51.00;;;;;;4985063;28;20178;-62
2024/01/11 03:23:05;;;;;;;34.10;19.90;;;1.80;51.10;;;;;;4988114;28;20194;-57
2024/01/11 03:25:31;;;;;;;34.80;20.10;;;1.80;51.20;;;;;;4990370;28;20584;-58
2024/01/11 03:27:58;;;;;;;32.37;19.57;;;1.80;51.30;;;;;;4991569;28;20250;-59
2024/01/11 03:30:24;;;;;;;36.50;20.20;;;1.80;51.30;;;;;;4986239;28;20253;-60
2024/01/11 03:32:50;;;;;;;37.07;20.20;;;1.70;51.20;;;;;;4994472;28;20445;-55
2024/01/11 03:35:15;;;;;;;36.80;20.23;;;1.70;51.10;;;;;;4992849;28;20247;-61
2024/01/11 03:37:41;;;;;;;33.40;19.20;;;1.80;51.00;;;;;;4984650;28;20205;-57
2024/01/11 03:40:07;;;;;;;41.53;21.13;;;1.70;51.10;;;;;;4984004;28;20567;-61
2024/01/11 03:42:32;;;;;;;36.87;19.70;;;1.80;51.40;;;;;;4986951;28;20559;-59
2024/01/11 03:44:58;;;;;;;33.23;19.57;;;1.80;51.60;;;;;;4992606;28;20189;-58
2024/01/11 03:47:24;;;;;;;40.33;21.17;;;1.70;51.60;;;;;;4984851;28;20476;-63
2024/01/11 03:49:49;;;;;;;33.20;19.10;;;1.80;51.70;;;;;;4993190;28;20195;-56
2024/01/11 03:52:15;;;;;;;34.37;20.30;;;1.70;51.70;;;;;;4991823;28;20190;-58
2024/01/11 03:54:40;;;;;;;36.00;18.63;;;1.70;51.50;;;;;;4988055;28;20183;-59
2024/01/11 03:57:06;;;;;;;36.07;21.17;;;1.70;51.30;;;;;;4987664;28;20214;-59
2024/01/11 03:59:32;;;;;;;38.27;19.30;;;1.70;51.30;;;;;;4989549;28;20218;-59
2024/01/11 04:01:59;;;;;;;30.83;18.67;;;1.70;51.40;;;;;;4993131;28;20446;-61
2024/01/11 04:04:25;;;;;;;31.50;19.80;;;1.70;51.70;;;;;;4986393;28;20451;-62
2024/01/11 04:06:51;;;;;;;46.60;20.33;;;1.60;52.10;;;;;;4985478;28;20505;-58
2024/01/11 04:09:17;;;;;;;33.97;19.80;;;1.60;52.20;;;;;;4986098;28;20601;-62
2024/01/11 04:11:42;;;;;;;34.70;20.07;;;1.60;51.90;;;;;;4990400;28;20468;-59
2024/01/11 04:14:08;;;;;;;37.83;21.03;;;1.60;51.80;;;;;;4993026;28;20585;-59
2024/01/11 04:16:33;;;;;;;36.53;19.50;;;1.70;52.00;;;;;;4989590;28;20786;-56
2024/01/11 04:19:00;;;;;;;33.13;20.80;;;1.60;51.80;;;;;;4995559;28;20828;-61
2024/01/11 04:21:29;;;;;;;40.23;20.80;;;1.70;51.60;;;;;;4982272;28;20591;-57
2024/01/11 04:23:56;;;;;;;40.27;20.67;;;1.60;51.40;;;;;;4995357;28;20478;-61
2024/01/11 04:26:21;;;;;;;37.17;19.63;;;1.60;51.30;;;;;;4993828;28;21059;-59
2024/01/11 04:28:48;;;;;;;36.93;20.00;;;1.60;51.00;;;;;;4990963;28;20537;-61
2024/01/11 04:31:14;;;;;;;41.43;18.53;;;1.50;51.30;;;;;;4992220;28;20190;-58
2024/01/11 04:33:41;;;;;;;37.03;20.60;;;1.50;51.40;;;;;;4988910;28;20495;-57
2024/01/11 04:36:08;;;;;;;36.03;19.20;;;1.50;51.50;;;;;;4987480;28;20487;-58
2024/01/11 04:38:33;;;;;;;37.87;20.93;;;1.50;51.60;;;;;;4990365;28;21047;-60
2024/01/11 04:40:59;;;;;;;39.77;22.00;;;1.40;52.10;;;;;;4977292;28;20445;-58
2024/01/11 04:43:24;;;;;;;42.23;22.27;;;1.50;52.20;;;;;;4984353;28;20174;-59
2024/01/11 04:45:51;;;;;;;35.27;21.47;;;1.50;52.00;;;;;;4980695;28;20206;-58
2024/01/11 04:48:17;;;;;;;32.50;20.70;;;1.60;51.70;;;;;;4982407;28;20198;-60
2024/01/11 04:50:44;;;;;;;32.37;18.70;;;1.60;51.60;;;;;;4980543;28;20513;-58
2024/01/11 04:53:09;;;;;;;35.53;19.67;;;1.60;51.40;;;;;;4978454;28;20245;-62
2024/01/11 04:55:35;;;;;;;33.50;19.60;;;1.60;51.30;;;;;;4978363;28;20474;-59
2024/01/11 04:58:00;;;;;;;29.13;18.43;;;1.60;51.10;;;;;;4981742;28;20223;-60
2024/01/11 05:00:26;;;;;;;31.37;19.37;;;1.60;51.10;;;;;;4983313;28;20187;-61
2024/01/11 05:02:51;;;;;;;33.70;19.13;;;1.50;51.20;;;;;;4989151;28;20222;-61
2024/01/11 05:05:17;;;;;;;36.00;18.57;;;1.50;51.40;;;;;;4990678;28;20174;-60
2024/01/11 05:07:42;;;;;;;38.47;20.53;;;1.50;51.40;;;;;;4987438;28;20191;-59
2024/01/11 05:10:08;;;;;;;34.60;19.80;;;1.50;51.40;;;;;;4981842;28;20195;-59
2024/01/11 05:12:34;;;;;;;36.13;19.07;;;1.50;51.40;;;;;;4982538;28;20210;-62
2024/01/11 05:14:59;;;;;;;33.60;19.90;;;1.50;51.50;;;;;;4989481;28;20187;-61
2024/01/11 05:17:26;;;;;;;33.10;18.40;;;1.50;51.40;;;;;;4979001;28;20217;-60
2024/01/11 05:19:52;;;;;;;31.07;18.90;;;1.50;51.30;;;;;;4987943;28;20900;-62
2024/01/11 05:22:18;;;;;;;31.83;18.67;;;1.50;51.20;;;;;;4986119;28;20548;-60
2024/01/11 05:24:43;;;;;;;34.53;19.37;;;1.50;51.10;;;;;;4984327;28;20187;-59
2024/01/11 05:27:09;;;;;;;30.43;18.50;;;1.50;50.80;;;;;;4991754;28;20499;-59
2024/01/11 05:29:34;;;;;;;31.97;18.60;;;1.50;50.80;;;;;;4986577;28;20242;-58
2024/01/11 05:32:00;;;;;;;32.23;19.20;;;1.50;50.60;;;;;;4991683;28;20238;-61
2024/01/11 05:34:25;;;;;;;40.90;19.87;;;1.40;50.60;;;;;;4991170;28;20240;-64
2024/01/11 05:36:51;;;;;;;34.37;19.27;;;1.40;50.70;;;;;;4988767;28;20227;-59
2024/01/11 05:39:16;;;;;;;33.93;19.07;;;1.40;50.90;;;;;;4993313;28;20261;-60
2024/01/11 05:41:45;;;;;;;39.40;20.63;;;1.40;51.20;;;;;;4988757;28;20217;-59
2024/01/11 05:44:11;;;;;;;33.57;19.87;;;1.40;51.30;;;;;;4989104;28;20561;-54
2024/01/11 05:46:37;;;;;;;32.00;18.27;;;1.40;51.50;;;;;;4984916;28;20473;-59
2024/01/11 05:49:03;;;;;;;36.60;21.87;;;1.40;51.70;;;;;;4994835;28;20535;-61
2024/01/11 05:51:28;;;;;;;36.00;21.13;;;1.40;51.80;;;;;;4985010;28;20608;-59
2024/01/11 05:53:55;;;;;;;35.00;20.00;;;1.40;51.70;;;;;;4981142;28;20430;-61
2024/01/11 05:56:20;;;;;;;32.80;19.07;;;1.40;51.60;;;;;;4983326;28;22344;-60
2024/01/11 05:58:46;;;;;;;34.43;19.80;;;1.40;51.50;;;;;;4990283;28;20564;-61
2024/01/11 06:01:12;;;;;;;37.60;19.83;;;1.30;51.30;;;;;;4987257;28;20233;-58
2024/01/11 06:03:39;;;;;;;41.57;20.87;;;1.30;51.30;;;;;;4979231;28;20583;-60
2024/01/11 06:06:05;;;;;;;40.17;20.17;;;1.30;51.30;;;;;;4986552;28;20261;-65
2024/01/11 06:08:31;;;;;;;38.03;20.00;;;1.30;51.00;;;;;;4986746;28;20852;-58
2024/01/11 06:10:58;;;;;;;33.63;19.80;;;1.20;51.00;;;;;;4987678;28;20442;-59
2024/01/11 06:13:24;;;;;;;31.70;20.07;;;1.20;51.30;;;;;;4981164;28;20254;-60
2024/01/11 06:15:50;;;;;;;46.67;20.93;;;1.10;52.30;;;;;;4986709;28;20469;-57
2024/01/11 06:18:15;;;;;;;37.87;20.27;;;1.10;52.10;;;;;;4977704;28;20469;-61
2024/01/11 06:20:41;;;;;;;46.00;27.47;;;1.20;52.20;;;;;;4982002;28;20449;-57
2024/01/11 06:23:07;;;;;;;37.77;20.83;;;1.30;52.10;;;;;;4990012;28;20213;-61
2024/01/11 06:25:33;;;;;;;39.50;20.97;;;1.40;52.50;;;;;;4988286;28;20210;-59
2024/01/11 06:27:59;;;;;;;36.67;21.73;;;1.90;53.10;;;;;;4991225;28;20190;-62
2024/01/11 06:30:24;;;;;;;36.73;20.23;;;2.40;52.20;;;;;;4982250;28;20831;-62
2024/01/11 06:32:50;;;;;;;38.17;21.30;;;2.80;50.30;;;;;;4979322;28;20187;-59
2024/01/11 06:35:15;;;;;;;41.33;21.33;;;3.20;49.80;;;;;;4977584;28;20201;-62
2024/01/11 06:37:41;;;;;;;36.47;20.90;;;3.40;47.90;;;;;;4979264;28;20202;-61
2024/01/11 06:40:08;;;;;;;35.90;21.67;;;3.40;47.20;;;;;;4977190;28;20194;-62
2024/01/11 06:42:34;;;;;;;40.93;21.20;;;3.30;46.80;;;;;;4979481;28;20237;-59
2024/01/11 06:44:59;;;;;;;34.83;20.27;;;3.00;46.70;;;;;;4989196;28;20972;-58
2024/01/11 06:47:25;;;;;;;34.57;20.10;;;2.80;47.10;;;;;;4985613;28;20464;-61
2024/01/11 06:49:51;;;;;;;36.03;19.80;;;2.60;47.60;;;;;;4982821;28;20655;-60
2024/01/11 06:52:16;;;;;;;36.07;21.27;;;2.50;47.90;;;;;;4985483;28;20214;-57
2024/01/11 06:54:42;;;;;;;38.67;22.53;;;2.30;48.10;;;;;;4993186;28;20199;-57
2024/01/11 06:57:07;;;;;;;43.27;26.60;;;2.20;48.50;;;;;;4997271;28;20205;-61
2024/01/11 06:59:33;;;;;;;37.33;23.07;;;2.10;48.60;;;;;;4996360;28;20592;-62
2024/01/11 07:01:59;;;;;;;34.67;20.20;;;2.00;48.80;;;;;;4987380;28;20721;-56
2024/01/11 07:04:24;;;;;;;40.73;22.27;;;1.90;49.20;;;;;;4992767;28;20514;-59
2024/01/11 07:06:50;;;;;;;38.67;20.63;;;1.80;49.40;;;;;;4985169;28;20207;-56
2024/01/11 07:09:16;;;;;;;41.90;21.40;;;1.70;49.60;;;;;;4993678;28;20209;-64
2024/01/11 07:11:43;;;;;;;40.07;22.80;;;1.70;49.50;;;;;;4993664;28;20190;-60
2024/01/11 07:14:09;;;;;;;41.40;21.93;;;1.60;49.40;;;;;;4996052;28;20436;-59
2024/01/11 07:16:35;;;;;;;32.33;20.43;;;1.60;49.40;;;;;;4990159;28;20438;-60
2024/01/11 07:19:00;;;;;;;39.10;22.97;;;1.50;49.50;;;;;;4995965;28;20214;-59
2024/01/11 07:21:29;;;;;;;45.17;21.20;;;1.40;49.60;;;;;;4992829;28;20473;-60
2024/01/11 07:24:01;;;;;;;38.97;23.00;;;1.40;49.80;;;;;;4990376;28;20245;-58
2024/01/11 07:26:27;;;;;;;40.60;22.37;;;1.30;49.80;;;;;;4986817;28;20512;-59
2024/01/11 07:28:54;;;;;;;35.93;21.27;;;1.30;50.20;;;;;;4998331;28;20446;-58
2024/01/11 07:31:20;;;;;;;42.23;22.40;;;1.20;50.60;;;;;;4986112;28;20487;-59
2024/01/11 07:33:46;;;;;;;36.20;20.23;;;1.30;50.80;;;;;;4996676;28;20473;-64
2024/01/11 07:36:11;;;;;;;42.37;21.83;;;1.50;50.60;;;;;;4987350;28;20205;-57
2024/01/11 07:38:37;;;;;;;46.30;22.33;;;1.80;50.40;;;;;;4983940;28;20229;-61
2024/01/11 07:41:03;;;;;;;40.27;20.83;;;2.00;49.90;;;;;;4988789;28;20197;-58
2024/01/11 07:43:28;;;;;;;45.30;24.67;;;2.30;49.40;;;;;;4993994;28;20233;-59
2024/01/11 07:45:56;;;;;;;39.17;21.73;;;2.70;49.00;;;;;;4997643;28;20206;-60
2024/01/11 07:48:22;;;;;;;44.27;21.80;;;3.10;48.10;;;;;;4996612;28;20191;-55
2024/01/11 07:50:48;;;;;;;47.00;21.90;;;3.50;47.30;;;;;;4997379;28;20476;-61
2024/01/11 07:53:14;;;;;;;43.27;24.37;;;3.90;46.60;;;;;;4999635;28;20413;-61
2024/01/11 07:55:40;;;;;;;36.93;20.83;;;4.20;46.00;;;;;;4993340;28;20233;-60
2024/01/11 07:58:06;;;;;;;38.30;22.10;;;4.60;45.40;;;;;;4997725;28;20563;-63
2024/01/11 08:00:32;;;;;;;40.73;23.00;;;4.80;44.60;;;;;;4990206;28;20279;-62
2024/01/11 08:02:57;;;;;;;35.70;20.67;;;5.10;44.20;;;;;;4993471;28;20516;-55
2024/01/11 08:05:23;;;;;;;34.23;21.63;;;5.30;43.50;;;;;;4996107;28;20205;-59
2024/01/11 08:07:48;;;;;;;39.20;22.50;;;5.40;43.00;;;;;;4991610;28;20194;-58
2024/01/11 08:10:14;;;;;;;38.30;21.97;;;5.50;42.90;;;;;;4997906;28;20277;-60
2024/01/11 08:12:40;;;;;;;44.23;22.80;;;5.40;43.00;;;;;;4991057;28;20190;-55
2024/01/11 08:15:05;;;;;;;40.70;23.97;;;5.10;44.00;;;;;;4994842;28;20521;-61
2024/01/11 08:17:31;;;;;;;41.87;25.10;;;4.90;43.90;;;;;;4992560;28;20209;-57
2024/01/11 08:19:56;;;;;;;43.93;24.87;;;4.60;44.30;;;;;;4998487;28;20660;-59
2024/01/11 08:22:23;;;;;;;38.70;25.70;;;4.40;44.90;;;;;;4997878;28;20193;-62
2024/01/11 08:24:49;;;;;;;45.70;24.60;;;4.10;45.40;;;;;;4996411;28;20278;-60
2024/01/11 08:27:17;;;;;;;40.23;25.07;;;3.80;46.20;;;;;;4993079;28;20472;-59
2024/01/11 08:29:43;;;;;;;37.60;23.60;;;3.70;46.70;;;;;;4991558;28;20987;-60
2024/01/11 08:32:08;;;;;;;41.63;25.10;;;3.50;47.10;;;;;;4998747;28;20784;-60
2024/01/11 08:34:34;;;;;;;41.57;24.70;;;3.40;47.50;;;;;;4987640;28;20478;-60
2024/01/11 08:37:00;;;;;;;37.83;22.53;;;3.30;48.00;;;;;;4993550;28;20747;-58
2024/01/11 08:39:25;;;;;;;41.10;24.77;;;3.20;48.70;;;;;;4992965;28;20349;-56
2024/01/11 08:41:52;;;;;;;40.13;24.47;;;3.20;49.10;;;;;;4988342;28;20218;-58
2024/01/11 08:44:18;;;;;;;47.30;24.10;;;3.10;49.30;;;;;;4998020;28;20178;-60
2024/01/11 08:46:43;;;;;;;42.73;25.00;;;3.10;49.40;;;;;;4994500;28;20442;-59
2024/01/11 08:49:09;;;;;;;41.50;23.30;;;3.10;49.80;;;;;;4997851;28;20663;-57
2024/01/11 08:51:34;;;;;;;41.67;24.50;;;3.10;49.50;;;;;;4996106;28;20513;-59
2024/01/11 08:54:00;;;;;;;40.90;21.80;;;3.10;49.60;;;;;;4997553;28;20240;-58
2024/01/11 08:56:26;;;;;;;40.03;23.33;;;3.10;49.80;;;;;;4995944;28;20230;-56
2024/01/11 08:58:51;;;;;;;42.73;24.20;;;3.10;49.80;;;;;;4996486;28;20214;-57
2024/01/11 09:01:18;;;;;;;44.87;23.97;;;3.10;49.70;;;;;;4995031;28;20178;-59
2024/01/11 09:03:43;;;;;;;45.10;23.90;;;3.10;49.90;;;;;;4997024;28;20182;-58
2024/01/11 09:06:10;;;;;;;42.07;23.73;;;3.10;50.40;;;;;;4994503;28;21030;-60
2024/01/11 09:08:35;;;;;;;37.47;22.10;;;3.10;50.50;;;;;;4994234;28;20191;-59
2024/01/11 09:11:01;;;;;;;43.57;24.00;;;3.10;50.80;;;;;;4992789;28;20426;-61
2024/01/11 09:13:27;;;;;;;36.80;22.43;;;3.10;50.90;;;;;;4995122;28;20668;-57
2024/01/11 09:15:54;;;;;;;38.93;22.80;;;3.20;51.10;;;;;;4991143;28;20585;-58
2024/01/11 09:18:20;;;;;;;38.97;24.07;;;3.30;51.40;;;;;;4990842;28;20563;-61
2024/01/11 09:20:45;;;;;;;42.70;24.60;;;3.40;51.60;;;;;;4994758;28;20422;-61
2024/01/11 09:23:11;;;;;;;41.73;23.47;;;3.40;51.60;;;;;;4998875;28;20439;-60
2024/01/11 09:25:37;;;;;;;41.53;24.50;;;3.50;51.70;;;;;;4993171;28;20515;-60
2024/01/11 09:28:03;;;;;;;37.87;23.50;;;3.20;52.40;;;;;;4994975;28;20201;-59
2024/01/11 09:30:29;;;;;;;38.73;23.67;;;3.20;52.80;;;;;;4995187;28;20186;-61
2024/01/11 09:32:55;;;;;;;42.23;24.17;;;3.40;53.00;;;;;;4978238;28;20433;-56
2024/01/11 09:35:22;;;;;;;37.83;23.80;;;3.60;52.80;;;;;;4983075;28;20190;-56
2024/01/11 09:37:47;;;;;;;36.90;23.33;;;3.80;52.50;;;;;;4990424;28;20968;-64
2024/01/11 09:40:13;;;;;;;40.47;25.20;;;4.00;52.30;;;;;;4991738;28;20539;-61
2024/01/11 09:42:39;;;;;;;43.30;26.27;;;4.20;52.10;;;;;;4988556;28;20207;-58
2024/01/11 09:45:08;;;;;;;41.00;24.43;;;4.30;52.00;;;;;;4993822;28;20274;-64
2024/01/11 09:47:36;;;;;;;44.00;25.00;;;4.60;51.70;;;;;;4993159;28;20466;-59
2024/01/11 09:50:03;;;;;;;40.40;25.50;;;4.80;51.60;;;;;;4990643;28;20449;-64
2024/01/11 09:52:31;;;;;;;46.47;25.87;;;4.90;50.70;;;;;;4986388;28;20449;-57
2024/01/11 09:55:01;;;;;;;42.37;26.50;;;5.00;50.40;;;;;;4992584;28;20449;-61
2024/01/11 09:57:31;;;;;;;39.40;24.93;;;5.30;49.80;;;;;;4993868;28;20534;-60
2024/01/11 09:59:57;;;;;;;42.77;24.20;;;5.60;49.10;;;;;;4987954;28;20556;-60
2024/01/11 10:02:25;;;;;;;44.30;25.77;;;5.80;48.60;;;;;;4991385;28;20476;-59
2024/01/11 10:04:52;;;;;;;42.43;26.17;;;6.10;48.20;;;;;;4987410;28;20452;-60
2024/01/11 10:07:21;;;;;;;41.80;26.90;;;6.30;47.70;;;;;;4990948;28;20528;-59
2024/01/11 10:09:47;;;;;;;36.87;24.40;;;6.50;47.30;;;;;;4994205;28;20446;-61
2024/01/11 10:12:13;;;;;;;39.43;25.93;;;6.70;46.70;;;;;;4992006;28;20455;-59
2024/01/11 10:14:39;;;;;;;39.13;25.27;;;6.80;45.90;;;;;;4994530;28;20442;-61
2024/01/11 10:17:05;;;;;;;42.33;26.37;;;6.80;45.70;;;;;;4985150;28;20203;-59
2024/01/11 10:19:30;;;;;;;42.63;25.13;;;6.90;45.40;;;;;;4992086;28;20221;-59
2024/01/11 10:21:58;;;;;;;43.63;26.30;;;7.00;45.20;;;;;;4994578;28;20437;-60
2024/01/11 10:24:26;;;;;;;38.87;24.83;;;7.10;44.30;;;;;;4988307;28;20553;-63
2024/01/11 10:26:55;;;;;;;40.20;25.20;;;7.00;44.10;;;;;;4984326;28;20548;-59
2024/01/11 10:29:20;;;;;;;40.67;24.57;;;7.00;44.60;;;;;;4974547;28;20457;-59
2024/01/11 10:31:46;;;;;;;41.43;27.10;;;7.00;44.50;;;;;;4975177;28;20481;-62
2024/01/11 10:34:12;;;;;;;49.67;28.20;;;7.10;44.40;;;;;;4980266;28;20290;-61
2024/01/11 10:36:37;;;;;;;45.80;27.30;;;7.30;44.20;;;;;;4983134;28;20210;-58
2024/01/11 10:39:04;;;;;;;33.47;24.67;;;7.50;44.00;;;;;;4989147;28;20634;-58
2024/01/11 10:41:36;;;;;;;41.27;25.00;;;7.60;43.80;;;;;;4984788;28;20767;-60
2024/01/11 10:44:03;;;;;;;37.80;25.10;;;7.70;43.90;;;;;;4990113;28;20460;-59
2024/01/11 10:46:30;;;;;;;35.13;25.63;;;7.80;43.80;;;;;;4982972;28;20461;-60
2024/01/11 10:48:59;;;;;;;41.47;26.17;;;7.90;43.90;;;;;;4984376;28;20481;-58
2024/01/11 10:51:28;;;;;;;40.03;27.60;;;7.90;44.10;;;;;;4991471;28;20540;-60
2024/01/11 10:53:54;;;;;;;40.53;26.70;;;8.10;43.80;;;;;;4993761;28;20528;-60
2024/01/11 10:56:20;;;;;;;40.87;25.80;;;8.30;43.40;;;;;;4983983;28;20589;-62
2024/01/11 10:58:46;;;;;;;41.37;25.10;;;8.40;43.20;;;;;;4979077;28;20597;-61
2024/01/11 11:01:13;;;;;;;39.47;25.67;;;8.50;42.30;;;;;;4984641;28;20422;-59
2024/01/11 11:03:39;;;;;;;40.93;26.60;;;8.60;42.60;;;;;;4987084;28;20526;-60
2024/01/11 11:06:06;;;;;;;45.90;26.83;;;8.60;42.50;;;;;;4990706;28;20490;-62
2024/01/11 11:08:32;;;;;;;39.07;25.50;;;8.80;42.40;;;;;;4991386;28;20480;-59
2024/01/11 11:10:59;;;;;;;42.00;27.90;;;8.80;42.10;;;;;;4990803;28;20434;-63
2024/01/11 11:13:26;;;;;;;42.20;27.93;;;8.90;41.60;;;;;;4987882;28;20261;-60
2024/01/11 11:15:52;;;;;;;42.40;27.93;;;9.00;41.50;;;;;;4974881;28;20504;-61
2024/01/11 11:18:19;;;;;;;40.83;27.50;;;9.10;41.60;;;;;;4994333;28;20467;-60
2024/01/11 11:20:45;;;;;;;46.10;28.20;;;9.20;41.50;;;;;;4992078;28;20425;-60
2024/01/11 11:23:14;;;;;;;39.10;26.63;;;9.10;41.90;;;;;;4990281;28;20433;-59
2024/01/11 11:25:40;;;;;;;42.97;27.43;;;9.20;42.00;;;;;;4990196;28;20477;-58
2024/01/11 11:28:07;;;;;;;41.20;27.80;;;9.40;42.10;;;;;;4987296;28;20888;-62
2024/01/11 11:30:40;;;;;;;36.67;25.03;;;9.20;41.60;;;;;;4975234;28;20459;-61
2024/01/11 11:33:17;;;;;;;47.30;29.40;;;9.10;41.90;;;;;;4989906;28;20524;-62
2024/01/11 11:35:43;;;;;;;40.63;26.57;;;9.10;42.00;;;;;;4990358;28;20466;-61
2024/01/11 11:38:20;;;;;;;35.67;24.50;;;9.10;41.90;;;;;;4985552;28;20496;-60
2024/01/11 11:40:52;;;;;;;36.60;24.93;;;9.10;41.90;;;;;;4993218;28;20579;-62
2024/01/11 11:43:18;;;;;;;43.43;29.40;;;9.10;41.70;;;;;;4994250;28;20422;-58
2024/01/11 11:45:46;;;;;;;44.67;28.90;;;9.00;42.20;;;;;;4988826;28;20565;-61
2024/01/11 11:48:31;;;;;;;38.60;27.27;;;8.90;42.20;;;;;;4986727;28;20451;-60
2024/01/11 11:51:07;;;;;;;42.53;28.23;;;8.80;42.30;;;;;;4997586;28;20813;-60
2024/01/11 11:53:39;;;;;;;40.40;27.90;;;8.80;42.50;;;;;;4997892;28;20410;-59
2024/01/11 11:56:06;;;;;;;42.47;28.13;;;8.70;42.80;;;;;;4993776;28;20461;-60
2024/01/11 11:58:34;;;;;;;41.13;28.47;;;8.60;42.90;;;;;;4989993;28;20465;-60
2024/01/11 12:01:00;;;;;;;38.40;27.27;;;8.60;43.00;;;;;;4990572;28;20996;-61
2024/01/11 12:03:33;;;;;;;45.90;27.77;;;8.60;43.20;;;;;;4990945;28;20452;-59
2024/01/11 12:06:00;;;;;;;44.40;27.63;;;8.50;42.60;;;;;;4986404;28;21028;-61
2024/01/11 12:08:26;;;;;;;38.77;27.17;;;8.50;42.90;;;;;;4995092;28;20445;-61
2024/01/11 12:10:52;;;;;;;39.90;28.37;;;8.50;43.30;;;;;;4997460;28;20430;-60
2024/01/11 12:13:20;;;;;;;44.33;26.50;;;8.50;43.00;;;;;;4990713;28;20816;-60
2024/01/11 12:15:46;;;;;;;39.17;25.60;;;8.40;43.50;;;;;;4994200;28;21003;-62
2024/01/11 12:18:12;;;;;;;37.37;27.03;;;8.40;43.60;;;;;;4992228;28;20436;-61
2024/01/11 12:20:38;;;;;;;42.20;26.33;;;8.50;43.50;;;;;;4991344;28;20182;-61
2024/01/11 12:23:04;;;;;;;40.00;26.73;;;8.70;43.50;;;;;;4996629;28;20269;-61
2024/01/11 12:25:31;;;;;;;38.33;26.70;;;8.70;43.20;;;;;;4990620;28;20225;-61
2024/01/11 12:27:57;;;;;;;40.60;27.93;;;8.80;43.00;;;;;;4998926;28;20428;-59
2024/01/11 12:30:23;;;;;;;38.93;26.30;;;8.90;42.90;;;;;;4988725;28;20425;-61